createdAt,value
2017-07-31T00:00:32.227Z,18.70
2017-07-31T00:03:03.631Z,18.80
2017-07-31T00:05:35.131Z,18.90
2017-07-31T00:08:06.720Z,18.90
2017-07-31T00:10:37.846Z,18.90
2017-07-31T00:13:09.790Z,18.90
2017-07-31T00:15:41.828Z,18.90
2017-07-31T00:18:13.617Z,19.00
2017-07-31T00:20:46.292Z,18.90
2017-07-31T00:23:29.958Z,18.90
2017-07-31T00:35:46.706Z,19.10
2017-07-31T00:38:17.852Z,18.90
2017-07-31T00:40:49.271Z,19.00
2017-07-31T00:43:21.301Z,19.10
2017-07-31T00:45:53.350Z,19.20
2017-07-31T00:48:24.890Z,19.20
2017-07-31T00:50:58.410Z,19.10
2017-07-31T00:53:28.400Z,19.10
2017-07-31T00:55:58.932Z,19.00
2017-07-31T00:58:30.997Z,18.80
2017-07-31T01:01:04.518Z,18.80
2017-07-31T01:03:35.129Z,18.70
2017-07-31T01:06:08.113Z,18.70
2017-07-31T01:08:40.178Z,18.60
2017-07-31T01:11:14.617Z,18.60
2017-07-31T01:13:45.635Z,18.50
2017-07-31T01:16:18.218Z,18.50
2017-07-31T01:18:50.284Z,18.40
2017-07-31T01:21:22.712Z,18.50
2017-07-31T01:23:54.723Z,18.60
2017-07-31T01:26:26.759Z,18.60
2017-07-31T01:28:57.321Z,18.70
2017-07-31T01:31:30.827Z,18.70
2017-07-31T01:34:03.603Z,18.80
2017-07-31T01:36:35.359Z,18.80
2017-07-31T01:39:07.426Z,18.80
2017-07-31T01:41:39.917Z,18.80
2017-07-31T01:44:11.555Z,18.90
2017-07-31T01:46:43.929Z,18.90
2017-07-31T01:49:15.994Z,18.90
2017-07-31T01:51:48.013Z,18.90
2017-07-31T01:54:19.817Z,18.90
2017-07-31T01:56:51.580Z,18.80
2017-07-31T01:59:24.875Z,18.80
2017-07-31T02:01:56.121Z,18.80
2017-07-31T02:04:28.695Z,18.80
2017-07-31T02:07:00.760Z,18.70
2017-07-31T02:09:33.747Z,18.70
2017-07-31T02:12:07.217Z,18.60
2017-07-31T02:14:40.260Z,18.60
2017-07-31T02:17:10.869Z,18.60
2017-07-31T02:19:43.853Z,18.60
2017-07-31T02:22:16.844Z,18.70
2017-07-31T02:24:49.832Z,18.60
2017-07-31T02:27:21.921Z,18.60
2017-07-31T02:29:53.040Z,18.60
2017-07-31T02:32:27.253Z,18.60
2017-07-31T02:34:59.534Z,18.50
2017-07-31T02:37:28.583Z,18.50
2017-07-31T02:40:03.144Z,18.40
2017-07-31T02:42:36.133Z,18.40
2017-07-31T02:45:08.199Z,18.50
2017-07-31T02:47:39.343Z,18.50
2017-07-31T02:50:13.249Z,18.50
2017-07-31T02:52:45.621Z,18.50
2017-07-31T02:55:16.877Z,18.50
2017-07-31T02:57:50.908Z,18.40
2017-07-31T03:00:22.433Z,18.50
2017-07-31T03:02:54.498Z,18.40
2017-07-31T03:05:28.030Z,18.30
2017-07-31T03:07:59.554Z,18.30
2017-07-31T03:10:29.774Z,18.30
2017-07-31T03:13:02.164Z,18.30
2017-07-31T03:15:34.211Z,18.30
2017-07-31T03:18:05.970Z,18.30
2017-07-31T03:20:38.309Z,18.30
2017-07-31T03:23:11.330Z,18.20
2017-07-31T03:25:43.371Z,18.20
2017-07-31T03:28:16.402Z,18.20
2017-07-31T03:30:47.476Z,18.20
2017-07-31T03:33:18.985Z,18.30
2017-07-31T03:35:51.047Z,18.30
2017-07-31T03:38:24.567Z,18.30
2017-07-31T03:40:55.175Z,18.30
2017-07-31T03:43:29.616Z,18.20
2017-07-31T03:46:01.152Z,18.20
2017-07-31T03:48:34.137Z,18.20
2017-07-31T03:51:04.667Z,18.20
2017-07-31T03:53:36.727Z,18.20
2017-07-31T03:56:08.744Z,18.20
2017-07-31T03:58:40.559Z,18.20
2017-07-31T04:01:12.314Z,18.20
2017-07-31T04:03:45.301Z,18.20
2017-07-31T04:06:16.449Z,18.20
2017-07-31T04:08:50.882Z,18.20
2017-07-31T04:11:20.909Z,18.20
2017-07-31T04:13:54.492Z,18.20
2017-07-31T04:16:27.473Z,18.10
2017-07-31T04:18:59.539Z,18.20
2017-07-31T04:21:30.996Z,18.30
2017-07-31T04:24:03.374Z,18.30
2017-07-31T04:26:35.059Z,18.20
2017-07-31T04:29:07.100Z,18.20
2017-07-31T04:31:37.103Z,18.30
2017-07-31T04:34:09.782Z,18.30
2017-07-31T04:36:42.770Z,18.40
2017-07-31T04:39:14.834Z,18.40
2017-07-31T04:41:46.287Z,18.50
2017-07-31T04:44:19.892Z,18.60
2017-07-31T04:46:51.957Z,18.70
2017-07-31T04:49:25.444Z,18.70
2017-07-31T04:51:57.930Z,18.80
2017-07-31T04:54:29.075Z,18.80
2017-07-31T04:57:03.294Z,19.00
2017-07-31T04:59:35.049Z,19.10
2017-07-31T05:02:07.569Z,19.20
2017-07-31T05:04:39.202Z,19.30
2017-07-31T05:07:10.328Z,19.40
2017-07-31T05:09:41.161Z,19.50
2017-07-31T05:12:13.224Z,19.60
2017-07-31T05:14:46.212Z,19.60
2017-07-31T05:17:19.743Z,19.60
2017-07-31T05:19:53.108Z,19.60
2017-07-31T05:22:24.804Z,19.70
2017-07-31T05:24:56.885Z,19.80
2017-07-31T05:27:28.386Z,20.00
2017-07-31T05:30:00.452Z,20.00
2017-07-31T05:32:32.519Z,20.10
2017-07-31T05:35:05.815Z,20.10
2017-07-31T05:37:36.648Z,20.20
2017-07-31T05:40:07.790Z,20.40
2017-07-31T05:42:40.470Z,20.40
2017-07-31T05:45:13.764Z,20.50
2017-07-31T05:47:45.830Z,20.50
2017-07-31T05:50:16.973Z,20.60
2017-07-31T05:52:49.335Z,20.60
2017-07-31T05:55:22.373Z,20.70
2017-07-31T05:57:54.706Z,20.80
2017-07-31T06:00:28.000Z,21.10
2017-07-31T06:03:01.300Z,21.40
2017-07-31T06:05:32.135Z,21.90
2017-07-31T06:08:04.487Z,22.70
2017-07-31T06:10:36.569Z,23.40
2017-07-31T06:13:09.547Z,23.80
2017-07-31T06:15:42.242Z,23.80
2017-07-31T06:18:16.149Z,23.90
2017-07-31T06:20:48.213Z,24.10
2017-07-31T06:23:22.122Z,24.30
2017-07-31T06:25:53.268Z,24.90
2017-07-31T06:28:26.693Z,25.30
2017-07-31T06:30:59.240Z,25.80
2017-07-31T06:33:32.226Z,26.40
2017-07-31T06:36:04.295Z,26.90
2017-07-31T06:38:35.442Z,27.30
2017-07-31T06:41:09.657Z,27.50
2017-07-31T06:43:42.875Z,27.50
2017-07-31T06:46:14.401Z,27.40
2017-07-31T06:48:46.474Z,27.40
2017-07-31T06:51:18.533Z,27.30
2017-07-31T06:53:51.525Z,27.70
2017-07-31T06:56:22.665Z,28.30
2017-07-31T06:58:54.119Z,28.90
2017-07-31T07:01:26.792Z,28.60
2017-07-31T07:03:59.284Z,28.50
2017-07-31T07:06:30.013Z,28.60
2017-07-31T07:09:00.844Z,28.90
2017-07-31T07:11:34.142Z,29.90
2017-07-31T07:14:05.017Z,31.40
2017-07-31T07:16:37.957Z,32.10
2017-07-31T07:19:11.254Z,32.80
2017-07-31T07:21:43.019Z,31.90
2017-07-31T07:24:13.543Z,32.00
2017-07-31T07:26:45.606Z,32.00
2017-07-31T07:29:16.135Z,31.50
2017-07-31T07:31:48.703Z,31.30
2017-07-31T07:34:21.735Z,31.40
2017-07-31T07:36:52.806Z,31.30
2017-07-31T07:39:25.325Z,31.00
2017-07-31T07:41:55.855Z,30.70
2017-07-31T07:44:28.222Z,31.60
2017-07-31T07:47:02.438Z,33.30
2017-07-31T07:49:33.582Z,34.20
2017-07-31T07:52:06.576Z,35.30
2017-07-31T07:54:37.101Z,35.10
2017-07-31T07:57:11.625Z,34.10
2017-07-31T07:59:43.689Z,34.10
2017-07-31T08:02:16.982Z,33.90
2017-07-31T08:04:49.276Z,34.00
2017-07-31T08:07:20.807Z,34.30
2017-07-31T08:09:52.874Z,34.60
2017-07-31T08:12:26.372Z,34.60
2017-07-31T08:14:57.002Z,34.90
2017-07-31T08:17:29.991Z,34.20
2017-07-31T08:20:02.981Z,35.10
2017-07-31T08:22:35.623Z,36.10
2017-07-31T08:25:08.608Z,36.90
2017-07-31T08:27:41.634Z,37.30
2017-07-31T08:30:13.686Z,37.30
2017-07-31T08:32:48.748Z,37.10
2017-07-31T08:35:18.749Z,36.60
2017-07-31T08:37:52.357Z,36.30
2017-07-31T08:40:24.416Z,36.80
2017-07-31T08:42:57.403Z,37.70
2017-07-31T08:45:28.012Z,38.10
2017-07-31T08:48:01.538Z,38.70
2017-07-31T08:50:33.605Z,39.70
2017-07-31T08:53:06.591Z,41.00
2017-07-31T08:55:40.120Z,41.50
2017-07-31T08:58:11.641Z,42.00
2017-07-31T09:00:42.789Z,42.10
2017-07-31T09:03:16.100Z,42.70
2017-07-31T09:05:49.068Z,42.70
2017-07-31T09:08:19.906Z,41.80
2017-07-31T09:10:54.415Z,41.40
2017-07-31T09:13:26.431Z,41.70
2017-07-31T09:15:57.023Z,42.70
2017-07-31T09:18:30.508Z,43.20
2017-07-31T09:21:01.156Z,42.50
2017-07-31T09:23:35.371Z,42.50
2017-07-31T09:26:06.208Z,42.80
2017-07-31T09:28:38.272Z,43.70
2017-07-31T09:31:10.336Z,44.80
2017-07-31T09:33:42.402Z,45.40
2017-07-31T09:36:13.852Z,45.10
2017-07-31T09:38:45.866Z,45.90
2017-07-31T09:41:16.448Z,46.60
2017-07-31T09:43:48.515Z,47.30
2017-07-31T09:46:20.579Z,47.60
2017-07-31T09:48:53.570Z,48.00
2017-07-31T09:51:26.081Z,47.10
2017-07-31T09:53:58.619Z,46.50
2017-07-31T09:56:30.193Z,46.80
2017-07-31T09:59:04.199Z,47.80
2017-07-31T10:01:36.045Z,47.80
2017-07-31T10:04:07.808Z,48.00
2017-07-31T10:06:41.334Z,48.10
2017-07-31T10:09:12.865Z,47.20
2017-07-31T10:11:45.844Z,46.30
2017-07-31T10:14:16.990Z,45.00
2017-07-31T10:16:49.056Z,43.20
2017-07-31T10:19:22.551Z,41.80
2017-07-31T10:21:53.191Z,40.70
2017-07-31T10:24:24.633Z,40.00
2017-07-31T10:26:56.640Z,39.30
2017-07-31T10:29:30.683Z,38.50
2017-07-31T10:32:01.714Z,37.80
2017-07-31T10:34:33.745Z,36.90
2017-07-31T10:37:05.805Z,36.20
2017-07-31T10:39:37.856Z,35.60
2017-07-31T10:42:08.488Z,35.00
2017-07-31T10:44:39.945Z,34.20
2017-07-31T10:47:13.533Z,33.70
2017-07-31T10:49:47.010Z,33.40
2017-07-31T10:52:20.050Z,32.80
2017-07-31T10:54:54.057Z,32.50
2017-07-31T10:57:25.124Z,32.50
2017-07-31T10:59:56.935Z,32.50
2017-07-31T11:02:29.963Z,32.40
2017-07-31T11:05:03.834Z,32.60
2017-07-31T11:07:36.821Z,32.60
2017-07-31T11:10:10.345Z,32.60
2017-07-31T11:12:42.385Z,32.70
2017-07-31T11:15:14.856Z,32.70
2017-07-31T11:17:46.929Z,32.80
2017-07-31T11:20:19.489Z,32.60
2017-07-31T11:22:49.535Z,32.60
2017-07-31T11:25:23.129Z,32.60
2017-07-31T11:27:54.586Z,32.80
2017-07-31T11:30:26.616Z,33.00
2017-07-31T11:32:58.635Z,33.10
2017-07-31T11:35:30.459Z,33.30
2017-07-31T11:38:03.139Z,33.10
2017-07-31T11:40:35.207Z,33.10
2017-07-31T11:43:07.274Z,33.00
2017-07-31T11:45:38.416Z,32.80
2017-07-31T11:48:09.254Z,32.60
2017-07-31T11:50:42.765Z,32.60
2017-07-31T11:53:14.327Z,32.90
2017-07-31T11:55:46.369Z,33.00
2017-07-31T11:58:17.514Z,32.80
2017-07-31T12:00:48.921Z,32.90
2017-07-31T12:03:22.946Z,32.90
2017-07-31T12:05:53.980Z,32.90
2017-07-31T12:08:28.007Z,33.20
2017-07-31T12:11:02.033Z,33.30
2017-07-31T12:13:34.516Z,33.40
2017-07-31T12:16:05.663Z,33.50
2017-07-31T12:18:37.731Z,33.60
2017-07-31T12:21:11.640Z,33.50
2017-07-31T12:23:44.624Z,33.20
2017-07-31T12:26:17.920Z,33.10
2017-07-31T12:28:48.761Z,33.10
2017-07-31T12:31:22.660Z,33.10
2017-07-31T12:33:54.732Z,33.20
2017-07-31T12:36:27.719Z,33.20
2017-07-31T12:38:58.261Z,32.90
2017-07-31T12:41:30.278Z,32.90
2017-07-31T12:44:03.298Z,32.80
2017-07-31T12:46:35.364Z,32.70
2017-07-31T12:49:08.345Z,32.60
2017-07-31T12:51:41.971Z,32.40
2017-07-31T12:54:16.395Z,32.30
2017-07-31T12:56:48.470Z,32.20
2017-07-31T12:59:20.502Z,32.20
2017-07-31T13:01:52.981Z,32.30
2017-07-31T13:04:25.546Z,32.30
2017-07-31T13:06:58.035Z,32.40
2017-07-31T13:09:28.561Z,32.50
2017-07-31T13:12:00.605Z,32.60
2017-07-31T13:14:32.631Z,32.50
2017-07-31T13:17:04.666Z,32.40
2017-07-31T13:19:36.215Z,32.40
2017-07-31T13:22:08.294Z,32.50
2017-07-31T13:24:41.264Z,32.60
2017-07-31T13:27:14.250Z,32.60
2017-07-31T13:29:44.785Z,32.60
2017-07-31T13:32:18.388Z,32.70
2017-07-31T13:34:51.375Z,32.90
2017-07-31T13:37:23.934Z,32.80
2017-07-31T13:39:56.946Z,32.80
2017-07-31T13:42:28.489Z,32.80
2017-07-31T13:44:59.637Z,32.90
2017-07-31T13:47:34.072Z,33.10
2017-07-31T13:50:06.101Z,33.00
2017-07-31T13:52:40.751Z,33.00
2017-07-31T13:55:12.206Z,33.10
2017-07-31T13:57:42.728Z,33.20
2017-07-31T14:00:14.787Z,33.20
2017-07-31T14:02:46.853Z,33.40
2017-07-31T14:05:18.004Z,33.50
2017-07-31T14:07:49.754Z,33.50
2017-07-31T14:10:20.901Z,33.40
2017-07-31T14:12:52.043Z,33.20
2017-07-31T14:15:23.801Z,33.10
2017-07-31T14:17:55.869Z,33.20
2017-07-31T14:20:26.398Z,33.20
2017-07-31T14:22:59.997Z,33.20
2017-07-31T14:25:31.448Z,33.20
2017-07-31T14:28:01.985Z,33.20
2017-07-31T14:30:35.502Z,33.10
2017-07-31T14:33:07.031Z,33.20
2017-07-31T14:35:37.586Z,33.10
2017-07-31T14:38:11.473Z,33.10
2017-07-31T14:40:44.168Z,33.20
2017-07-31T14:43:16.216Z,33.30
2017-07-31T14:45:49.216Z,33.30
2017-07-31T14:48:21.274Z,33.30
2017-07-31T14:50:54.284Z,33.30
2017-07-31T14:53:29.406Z,33.30
2017-07-31T14:56:00.800Z,33.30
2017-07-31T14:58:35.831Z,33.10
2017-07-31T15:01:08.369Z,33.10
2017-07-31T15:03:38.888Z,33.10
2017-07-31T15:06:10.942Z,33.20
2017-07-31T15:08:41.502Z,33.10
2017-07-31T15:11:14.466Z,32.80
2017-07-31T15:13:45.615Z,32.70
2017-07-31T15:16:19.524Z,32.60
2017-07-31T15:18:54.161Z,32.40
2017-07-31T15:21:26.721Z,32.30
2017-07-31T15:24:02.782Z,32.10
2017-07-31T15:26:35.161Z,32.10
2017-07-31T15:29:09.223Z,32.10
2017-07-31T15:31:40.821Z,32.10
2017-07-31T15:34:12.277Z,32.20
2017-07-31T15:36:44.288Z,32.30
2017-07-31T15:39:17.017Z,32.40
2017-07-31T15:41:49.327Z,32.40
2017-07-31T15:44:19.923Z,32.40
2017-07-31T15:46:52.907Z,32.30
2017-07-31T15:49:26.445Z,32.20
2017-07-31T15:51:56.424Z,32.10
2017-07-31T15:54:30.950Z,31.90
2017-07-31T15:57:03.016Z,31.70
2017-07-31T15:59:34.160Z,31.60
2017-07-31T16:02:05.301Z,31.50
2017-07-31T16:04:37.634Z,31.40
2017-07-31T16:07:09.713Z,31.40
2017-07-31T16:09:42.419Z,31.30
2017-07-31T16:12:14.485Z,31.20
2017-07-31T16:14:46.828Z,31.20
2017-07-31T16:17:17.393Z,31.20
2017-07-31T16:19:59.596Z,31.10
2017-07-31T16:22:31.678Z,31.30
2017-07-31T16:25:03.726Z,31.20
2017-07-31T16:27:37.018Z,31.30
2017-07-31T16:30:08.787Z,31.30
2017-07-31T16:32:39.633Z,31.20
2017-07-31T16:35:11.164Z,31.10
2017-07-31T16:37:42.196Z,31.00
2017-07-31T16:40:36.238Z,30.80
2017-07-31T16:43:28.119Z,30.70
2017-07-31T16:46:10.324Z,30.60
2017-07-31T16:48:49.151Z,30.60
2017-07-31T16:51:21.271Z,30.50
2017-07-31T16:53:51.488Z,30.50
2017-07-31T16:56:25.037Z,30.60
2017-07-31T16:58:56.484Z,30.50
2017-07-31T17:01:27.635Z,30.50
2017-07-31T17:04:00.925Z,30.40
2017-07-31T17:06:32.374Z,30.40
2017-07-31T17:09:04.439Z,30.40
2017-07-31T17:11:35.724Z,30.30
2017-07-31T17:14:06.425Z,30.20
2017-07-31T17:16:38.178Z,30.20
2017-07-31T17:19:09.325Z,30.20
2017-07-31T17:21:43.775Z,30.10
2017-07-31T17:24:15.301Z,30.10
2017-07-31T17:26:50.462Z,30.10
2017-07-31T17:29:21.888Z,30.00
2017-07-31T17:31:54.566Z,29.90
2017-07-31T17:34:26.329Z,29.70
2017-07-31T17:36:59.921Z,29.70
2017-07-31T17:39:32.911Z,29.40
2017-07-31T17:42:05.901Z,29.30
2017-07-31T17:44:39.018Z,29.30
2017-07-31T17:47:09.725Z,29.20
2017-07-31T17:49:44.038Z,29.20
2017-07-31T17:52:16.630Z,29.10
2017-07-31T17:54:48.692Z,29.10
2017-07-31T17:57:21.153Z,29.00
2017-07-31T17:59:53.744Z,28.90
2017-07-31T18:02:25.810Z,28.90
2017-07-31T18:04:58.797Z,28.90
2017-07-31T18:07:31.786Z,28.90
2017-07-31T18:10:02.934Z,28.90
2017-07-31T18:12:36.220Z,28.80
2017-07-31T18:15:07.305Z,28.70
2017-07-31T18:17:39.119Z,28.60
2017-07-31T18:20:12.361Z,28.60
2017-07-31T18:22:42.944Z,28.50
2017-07-31T18:25:17.376Z,28.50
2017-07-31T18:27:48.924Z,28.50
2017-07-31T18:30:20.995Z,28.40
2017-07-31T18:32:53.368Z,28.30
2017-07-31T18:35:27.269Z,28.20
2017-07-31T18:38:02.338Z,28.10
2017-07-31T18:40:33.525Z,28.10
2017-07-31T18:43:09.305Z,28.10
2017-07-31T18:45:42.547Z,28.10
2017-07-31T18:48:16.197Z,28.00
2017-07-31T18:50:52.313Z,28.00
2017-07-31T18:53:27.395Z,27.70
2017-07-31T18:56:04.656Z,27.70
2017-07-31T18:58:39.207Z,27.70
2017-07-31T19:01:14.352Z,27.60
2017-07-31T19:03:49.180Z,27.50
2017-07-31T19:06:33.528Z,27.30
2017-07-31T19:09:07.690Z,27.20
2017-07-31T19:11:40.719Z,27.00
2017-07-31T19:14:21.704Z,26.90
2017-07-31T19:16:57.776Z,26.90
2017-07-31T19:19:29.840Z,26.70
2017-07-31T19:22:04.841Z,26.60
2017-07-31T19:24:38.572Z,26.60
2017-07-31T19:27:10.893Z,26.50
2017-07-31T19:29:45.775Z,26.40
2017-07-31T19:32:18.184Z,26.40
2017-07-31T19:34:53.909Z,26.40
2017-07-31T19:37:29.004Z,26.40
2017-07-31T19:40:05.404Z,26.20
2017-07-31T19:42:39.929Z,26.20
2017-07-31T19:45:12.969Z,26.10
2017-07-31T19:47:43.749Z,26.10
2017-07-31T19:50:13.974Z,26.00
2017-07-31T19:52:47.577Z,25.90
2017-07-31T19:55:19.644Z,25.80
2017-07-31T19:57:52.623Z,25.70
2017-07-31T20:00:27.069Z,25.70
2017-07-31T20:03:00.103Z,25.60
2017-07-31T20:05:34.664Z,25.50
2017-07-31T20:08:06.729Z,25.50
2017-07-31T20:10:40.945Z,25.30
2017-07-31T20:13:13.936Z,25.30
2017-07-31T20:15:48.267Z,25.20
2017-07-31T20:18:19.902Z,25.20
2017-07-31T20:20:51.967Z,25.10
2017-07-31T20:23:23.728Z,25.10
2017-07-31T20:25:54.872Z,25.10
2017-07-31T20:28:27.857Z,25.00
2017-07-31T20:31:00.845Z,24.90
2017-07-31T20:33:32.913Z,24.90
2017-07-31T20:36:07.352Z,24.90
2017-07-31T20:38:37.959Z,24.80
2017-07-31T20:41:12.177Z,24.80
2017-07-31T20:43:43.935Z,24.70
2017-07-31T20:46:16.920Z,24.70
2017-07-31T20:48:49.504Z,24.60
2017-07-31T20:51:22.518Z,24.60
2017-07-31T20:53:54.038Z,24.60
2017-07-31T20:56:30.104Z,24.50
2017-07-31T20:59:04.319Z,24.50
2017-07-31T21:01:36.072Z,24.50
2017-07-31T21:04:16.448Z,24.50
2017-07-31T21:06:49.657Z,24.40
2017-07-31T21:09:21.691Z,24.40
2017-07-31T21:11:56.315Z,24.40
2017-07-31T21:14:29.304Z,24.40
2017-07-31T21:17:03.756Z,24.40
2017-07-31T21:19:34.786Z,24.40
2017-07-31T21:22:08.296Z,24.40
2017-07-31T21:24:39.410Z,24.40
2017-07-31T21:27:12.398Z,24.50
2017-07-31T21:29:44.460Z,24.50
2017-07-31T21:32:18.680Z,24.50
2017-07-31T21:34:50.972Z,24.50
2017-07-31T21:37:22.519Z,24.40
2017-07-31T21:39:54.566Z,24.30
2017-07-31T21:42:28.080Z,24.20
2017-07-31T21:44:59.629Z,24.20
2017-07-31T21:47:31.691Z,24.10
2017-07-31T21:50:04.990Z,24.10
2017-07-31T21:52:38.589Z,24.20
2017-07-31T21:55:10.304Z,24.10
2017-07-31T21:57:43.322Z,24.00
2017-07-31T22:00:15.340Z,24.00
2017-07-31T22:02:47.150Z,24.00
2017-07-31T22:05:17.990Z,24.00
2017-07-31T22:07:52.206Z,23.90
2017-07-31T22:10:23.042Z,23.90
2017-07-31T22:12:54.481Z,23.80
2017-07-31T22:15:29.501Z,23.80
2017-07-31T22:31:19.724Z,23.70
2017-07-31T22:33:55.256Z,23.30
2017-07-31T22:36:28.774Z,23.20
2017-07-31T22:39:00.310Z,23.20
2017-07-31T22:41:33.300Z,23.20
2017-07-31T22:44:04.440Z,23.20
2017-07-31T22:46:38.346Z,23.10
2017-07-31T22:49:10.416Z,23.10
2017-07-31T22:51:43.932Z,23.10
2017-07-31T22:54:14.546Z,23.00
2017-07-31T22:56:48.452Z,23.00
2017-07-31T22:59:18.982Z,23.00
2017-07-31T23:01:51.043Z,23.00
2017-07-31T23:07:12.964Z,22.90
2017-07-31T23:09:40.500Z,22.90
2017-07-31T23:12:08.049Z,22.90
2017-07-31T23:14:35.621Z,22.90
2017-07-31T23:17:03.157Z,22.90
2017-07-31T23:19:30.696Z,22.90
2017-07-31T23:21:58.268Z,22.80
2017-07-31T23:24:25.832Z,22.70
2017-07-31T23:26:53.385Z,22.80
2017-07-31T23:29:20.976Z,22.70
2017-07-31T23:31:48.508Z,22.70
2017-07-31T23:34:16.457Z,22.70
2017-07-31T23:36:44.197Z,22.70
2017-07-31T23:39:11.736Z,22.70
2017-07-31T23:41:39.280Z,22.60
2017-07-31T23:44:06.840Z,22.60
2017-07-31T23:46:34.433Z,22.60
2017-07-31T23:49:02.745Z,22.50
2017-07-31T23:51:30.360Z,22.50
2017-07-31T23:53:57.909Z,22.60
2017-07-31T23:56:25.489Z,22.50
2017-07-31T23:58:53.073Z,22.50
